Time;durP1;ratioP1;P1;durP2;ratioP2;P2;SDS_P1;SDS_P2;PMS_P1;PMS_P2;Temp;Humidity;BMP_temperature;BMP_pressure;BME280_temperature;BME280_humidity;BME280_pressure;Samples;Min_cycle;Max_cycle;Signal;HPM_P1;HPM_P2
2023/01/30 00:01:19;;;;;;;104.80;31.98;;;2.30;96.50;;;;;;4949109;28;20055;-81
2023/01/30 00:03:46;;;;;;;90.40;30.50;;;2.40;96.40;;;;;;4948010;28;20047;-81
2023/01/30 00:06:13;;;;;;;85.63;29.50;;;2.40;96.30;;;;;;4969507;28;20170;-81
2023/01/30 00:08:40;;;;;;;91.72;29.25;;;2.40;96.20;;;;;;4965960;28;20090;-81
2023/01/30 00:11:10;;;;;;;87.18;31.35;;;2.40;96.10;;;;;;4969226;28;20065;-82
2023/01/30 00:13:37;;;;;;;87.65;29.40;;;2.40;96.20;;;;;;4970310;28;20050;-81
2023/01/30 00:16:04;;;;;;;89.00;31.30;;;2.40;96.00;;;;;;4952874;28;20791;-81
2023/01/30 00:18:31;;;;;;;89.13;29.50;;;2.40;96.10;;;;;;4954247;28;20042;-82
2023/01/30 00:21:01;;;;;;;93.45;30.65;;;2.40;96.00;;;;;;4964249;28;20051;-81
2023/01/30 00:23:29;;;;;;;87.53;30.15;;;2.50;95.90;;;;;;4945347;28;20162;-81
2023/01/30 00:25:56;;;;;;;89.28;30.48;;;2.50;95.80;;;;;;4946073;28;20051;-81
2023/01/30 00:28:23;;;;;;;89.13;30.58;;;2.50;95.70;;;;;;4971928;28;20061;-80
2023/01/30 00:30:52;;;;;;;82.38;28.17;;;2.50;95.50;;;;;;4967945;28;20051;-80
2023/01/30 00:33:22;;;;;;;80.32;28.65;;;2.60;95.40;;;;;;4968446;28;20051;-80
2023/01/30 00:35:50;;;;;;;81.88;28.25;;;2.60;95.40;;;;;;4950273;28;20632;-80
2023/01/30 00:38:18;;;;;;;82.78;29.10;;;2.60;95.40;;;;;;4953425;28;20488;-80
2023/01/30 00:40:46;;;;;;;87.78;30.83;;;2.60;95.20;;;;;;4954852;28;20065;-80
2023/01/30 00:48:50;;;;;;;80.78;27.38;;;2.70;95.20;;;;;;4964330;28;20047;-80
2023/01/30 00:51:17;;;;;;;79.22;28.92;;;2.70;95.00;;;;;;4968601;28;20715;-80
2023/01/30 00:53:43;;;;;;;89.53;29.02;;;2.70;95.00;;;;;;4951756;28;20069;-81
2023/01/30 00:56:10;;;;;;;79.28;28.55;;;2.70;94.90;;;;;;4956929;28;20054;-81
2023/01/30 00:58:37;;;;;;;72.55;26.98;;;2.70;94.80;;;;;;4968831;28;20074;-80
2023/01/30 01:01:04;;;;;;;81.13;25.48;;;2.70;94.90;;;;;;4971751;28;20050;-81
2023/01/30 01:03:31;;;;;;;78.97;27.92;;;2.70;94.80;;;;;;4957931;28;20055;-81
2023/01/30 01:05:58;;;;;;;67.85;25.95;;;2.70;94.80;;;;;;4964859;28;20418;-81
2023/01/30 01:08:24;;;;;;;69.75;25.48;;;2.70;94.70;;;;;;4968255;28;20616;-82
2023/01/30 01:10:51;;;;;;;74.15;24.30;;;2.80;94.60;;;;;;4954263;28;20154;-81
2023/01/30 01:13:18;;;;;;;74.28;25.65;;;2.80;94.60;;;;;;4951390;28;20696;-81
2023/01/30 01:15:45;;;;;;;72.28;25.33;;;2.90;94.40;;;;;;4966757;28;20475;-82
2023/01/30 01:18:12;;;;;;;66.30;24.75;;;2.80;94.30;;;;;;4969942;28;20061;-83
2023/01/30 01:20:38;;;;;;;64.70;23.80;;;2.90;94.20;;;;;;4951976;28;20039;-81
2023/01/30 01:23:05;;;;;;;66.50;23.60;;;2.90;93.90;;;;;;4967127;28;20066;-81
2023/01/30 01:25:32;;;;;;;66.50;22.52;;;3.00;93.80;;;;;;4952318;28;20127;-81
2023/01/30 01:27:59;;;;;;;58.42;23.15;;;3.00;93.70;;;;;;4951312;28;20114;-82
2023/01/30 01:30:26;;;;;;;56.88;21.08;;;3.00;93.50;;;;;;4972769;28;20047;-82
2023/01/30 01:32:53;;;;;;;58.75;22.52;;;3.10;93.50;;;;;;4951422;28;20130;-82
2023/01/30 01:35:20;;;;;;;68.35;22.17;;;3.10;93.40;;;;;;4949759;28;20043;-81
2023/01/30 01:37:46;;;;;;;56.75;22.45;;;3.10;93.40;;;;;;4964860;28;20065;-82
2023/01/30 01:43:17;;;;;;;60.72;21.65;;;3.10;93.40;;;;;;4973755;28;20057;-82
2023/01/30 01:45:45;;;;;;;54.35;22.00;;;3.10;93.50;;;;;;4975353;28;20054;-82
2023/01/30 01:48:21;;;;;;;58.92;22.27;;;3.20;93.40;;;;;;4955354;28;20051;-83
2023/01/30 01:51:14;;;;;;;58.97;22.63;;;3.20;93.40;;;;;;4946067;28;20069;-84
2023/01/30 01:53:50;;;;;;;56.72;21.55;;;3.20;93.30;;;;;;4937084;28;20047;-83
2023/01/30 01:56:18;;;;;;;64.55;23.33;;;3.20;93.60;;;;;;4953678;28;20055;-83
2023/01/30 01:58:53;;;;;;;56.63;22.17;;;3.20;93.60;;;;;;4973492;28;20113;-83
2023/01/30 02:01:20;;;;;;;59.72;22.83;;;3.30;93.70;;;;;;4948858;28;20061;-83
2023/01/30 02:03:53;;;;;;;54.40;21.23;;;3.30;93.70;;;;;;4950558;28;20142;-83
2023/01/30 02:06:21;;;;;;;62.67;22.42;;;3.30;93.70;;;;;;4952661;28;20050;-83
2023/01/30 02:08:57;;;;;;;65.72;23.40;;;3.30;93.80;;;;;;4956879;28;20051;-83
2023/01/30 02:11:41;;;;;;;57.53;23.05;;;3.30;93.80;;;;;;4966695;28;20534;-83
2023/01/30 02:14:09;;;;;;;65.05;23.27;;;3.30;93.70;;;;;;4958597;28;20063;-83
2023/01/30 02:16:36;;;;;;;63.92;23.10;;;3.30;93.90;;;;;;4949624;28;20054;-83
2023/01/30 02:19:10;;;;;;;61.78;21.55;;;3.30;94.00;;;;;;4963990;28;20053;-83
2023/01/30 02:21:59;;;;;;;56.70;20.98;;;3.40;94.00;;;;;;4954121;28;20058;-85
2023/01/30 02:24:28;;;;;;;68.35;22.35;;;3.40;94.10;;;;;;4967996;28;20066;-83
2023/01/30 02:27:14;;;;;;;56.50;22.40;;;3.40;94.80;;;;;;4957144;28;20089;-82
2023/01/30 02:29:52;;;;;;;66.35;24.08;;;3.40;95.10;;;;;;4965700;28;20059;-82
2023/01/30 02:32:55;;;;;;;68.80;22.85;;;3.40;96.20;;;;;;4945808;28;20070;-82
2023/01/30 02:35:45;;;;;;;59.72;22.10;;;3.30;97.00;;;;;;4929642;28;20059;-82
2023/01/30 02:38:17;;;;;;;67.20;22.38;;;3.30;97.60;;;;;;4945089;28;20105;-82
2023/01/30 02:41:22;;;;;;;59.35;19.55;;;3.30;97.90;;;;;;4942299;28;20048;-82
2023/01/30 02:44:05;;;;;;;57.33;21.73;;;3.30;98.10;;;;;;4925802;29;20044;-82
2023/01/30 02:46:55;;;;;;;54.03;20.35;;;3.30;98.30;;;;;;4949495;28;20058;-82
2023/01/30 02:49:33;;;;;;;60.03;21.45;;;3.30;98.40;;;;;;4942998;29;20640;-83
2023/01/30 02:52:01;;;;;;;57.63;21.63;;;3.30;98.60;;;;;;4934096;29;20055;-82
2023/01/30 02:54:28;;;;;;;55.20;19.92;;;3.30;98.60;;;;;;4954263;28;20054;-82
2023/01/30 02:56:59;;;;;;;55.25;21.58;;;3.30;98.70;;;;;;4951612;28;20069;-82
2023/01/30 02:59:33;;;;;;;55.45;20.92;;;3.40;98.80;;;;;;4951152;28;20110;-82
2023/01/30 03:02:12;;;;;;;65.78;20.58;;;3.40;99.20;;;;;;4936458;28;20050;-81
2023/01/30 03:04:57;;;;;;;60.53;21.10;;;3.40;99.20;;;;;;4943554;28;20075;-82
2023/01/30 03:07:45;;;;;;;54.13;19.38;;;3.40;99.40;;;;;;4949735;28;20055;-82
2023/01/30 03:10:15;;;;;;;55.95;20.10;;;3.40;99.80;;;;;;4945187;28;20058;-81
2023/01/30 03:12:57;;;;;;;54.50;18.85;;;3.40;100.00;;;;;;4948975;28;20448;-81
2023/01/30 03:15:35;;;;;;;52.45;20.23;;;3.40;100.00;;;;;;4939434;28;20050;-81
2023/01/30 03:20:43;;;;;;;55.95;19.27;;;3.40;100.00;;;;;;4990884;28;20061;-80
2023/01/30 03:23:10;;;;;;;44.22;17.65;;;3.40;100.00;;;;;;4995359;28;20057;-82
2023/01/30 03:25:39;;;;;;;48.30;18.15;;;3.40;100.00;;;;;;4987524;28;20057;-81
2023/01/30 03:28:07;;;;;;;44.78;15.82;;;3.40;100.00;;;;;;4981701;28;20055;-81
2023/01/30 03:30:34;;;;;;;45.30;16.20;;;3.40;100.00;;;;;;4985640;28;20054;-81
2023/01/30 03:33:01;;;;;;;46.75;16.23;;;3.40;100.00;;;;;;4982076;28;20134;-81
2023/01/30 03:35:29;;;;;;;37.45;14.68;;;3.50;100.00;;;;;;4985157;28;20054;-81
2023/01/30 03:37:57;;;;;;;36.25;14.85;;;3.50;100.00;;;;;;4986258;28;20054;-81
2023/01/30 03:40:24;;;;;;;36.38;14.60;;;3.50;100.00;;;;;;4984889;28;20061;-80
2023/01/30 03:42:51;;;;;;;37.30;14.73;;;3.50;100.00;;;;;;4985559;28;20066;-80
2023/01/30 03:45:18;;;;;;;37.42;14.90;;;3.50;100.00;;;;;;4988688;28;20050;-81
2023/01/30 03:47:45;;;;;;;35.33;13.70;;;3.50;100.00;;;;;;4992818;28;20137;-81
2023/01/30 03:50:12;;;;;;;35.75;14.15;;;3.50;100.00;;;;;;4984378;28;20056;-81
2023/01/30 03:52:39;;;;;;;41.08;14.68;;;3.50;100.00;;;;;;4981070;28;20543;-82
2023/01/30 03:55:07;;;;;;;37.55;13.13;;;3.50;100.00;;;;;;4994598;28;20038;-81
2023/01/30 03:57:34;;;;;;;35.08;13.82;;;3.50;100.00;;;;;;4988107;28;20565;-81
2023/01/30 04:00:00;;;;;;;35.42;12.27;;;3.60;100.00;;;;;;4990288;28;20050;-81
2023/01/30 04:02:27;;;;;;;34.55;12.82;;;3.60;100.00;;;;;;4992282;28;20165;-82
2023/01/30 04:04:54;;;;;;;32.40;12.80;;;3.60;100.00;;;;;;4990242;28;20081;-81
2023/01/30 04:07:22;;;;;;;32.33;11.57;;;3.60;100.00;;;;;;4981645;28;20161;-82
2023/01/30 04:09:49;;;;;;;29.13;11.55;;;3.60;100.00;;;;;;4996213;28;20161;-81
2023/01/30 04:12:16;;;;;;;32.63;11.02;;;3.60;100.00;;;;;;4980712;28;20062;-82
2023/01/30 04:14:43;;;;;;;32.33;11.52;;;3.60;100.00;;;;;;4983888;28;20535;-81
2023/01/30 04:17:09;;;;;;;28.20;11.60;;;3.60;100.00;;;;;;4993646;28;20050;-82
2023/01/30 04:19:36;;;;;;;27.10;10.88;;;3.60;100.00;;;;;;4991409;28;20824;-81
2023/01/30 04:22:03;;;;;;;27.15;12.02;;;3.60;100.00;;;;;;5005659;28;20057;-82
2023/01/30 04:24:30;;;;;;;34.15;12.65;;;3.70;100.00;;;;;;5010008;28;20046;-82
2023/01/30 04:26:57;;;;;;;28.88;12.10;;;3.70;100.00;;;;;;5007374;28;20640;-81
2023/01/30 04:29:24;;;;;;;27.42;11.43;;;3.70;100.00;;;;;;5005074;28;20042;-82
2023/01/30 04:31:51;;;;;;;32.40;12.40;;;3.70;100.00;;;;;;5005775;28;20566;-82
2023/01/30 04:34:17;;;;;;;29.20;12.70;;;3.70;100.00;;;;;;5009461;28;20084;-83
2023/01/30 04:36:44;;;;;;;26.30;10.57;;;3.80;100.00;;;;;;5006228;28;20085;-82
2023/01/30 04:39:11;;;;;;;33.75;11.73;;;3.80;100.00;;;;;;5009022;28;20125;-83
2023/01/30 04:41:38;;;;;;;31.15;12.68;;;3.80;100.00;;;;;;5008218;28;20723;-82
2023/01/30 04:44:05;;;;;;;37.28;14.07;;;3.80;100.00;;;;;;5002944;28;20814;-83
2023/01/30 04:46:32;;;;;;;30.88;12.15;;;3.80;100.00;;;;;;5008617;28;20508;-82
2023/01/30 04:48:58;;;;;;;34.25;12.68;;;3.80;100.00;;;;;;5005971;28;20042;-82
2023/01/30 04:51:25;;;;;;;34.10;13.48;;;3.80;100.00;;;;;;5002177;28;20056;-82
2023/01/30 04:53:52;;;;;;;36.38;13.35;;;3.90;100.00;;;;;;5025122;28;20050;-82
2023/01/30 04:56:19;;;;;;;33.33;13.30;;;3.90;100.00;;;;;;5006861;28;20164;-82
2023/01/30 04:58:46;;;;;;;29.95;12.95;;;3.90;100.00;;;;;;5007008;28;20042;-82
2023/01/30 05:01:24;;;;;;;31.60;11.80;;;3.90;100.00;;;;;;5004301;28;20124;-82
2023/01/30 05:03:54;;;;;;;28.88;12.05;;;3.90;100.00;;;;;;5007445;28;20050;-82
2023/01/30 05:06:22;;;;;;;32.95;12.07;;;3.90;100.00;;;;;;5008140;28;20073;-82
2023/01/30 05:08:50;;;;;;;28.90;12.23;;;3.90;100.00;;;;;;5005147;28;20042;-82
2023/01/30 05:11:19;;;;;;;30.80;12.13;;;3.90;100.00;;;;;;5006841;28;20054;-83
2023/01/30 05:13:46;;;;;;;28.02;12.20;;;3.90;100.00;;;;;;5023161;28;20054;-82
2023/01/30 05:16:14;;;;;;;34.60;11.85;;;3.90;100.00;;;;;;5003167;28;20049;-82
2023/01/30 05:18:42;;;;;;;32.45;11.65;;;4.00;100.00;;;;;;5007667;28;20057;-82
2023/01/30 05:21:13;;;;;;;27.85;11.23;;;3.90;100.00;;;;;;5007550;28;20152;-82
2023/01/30 05:23:40;;;;;;;26.52;11.10;;;3.90;100.00;;;;;;5002822;28;20631;-82
2023/01/30 05:26:07;;;;;;;29.98;12.10;;;4.00;100.00;;;;;;5008449;28;20514;-82
2023/01/30 05:28:34;;;;;;;25.73;10.40;;;4.00;100.00;;;;;;5002371;28;20077;-82
2023/01/30 05:31:07;;;;;;;22.73;9.80;;;4.00;100.00;;;;;;5001591;28;20074;-83
2023/01/30 05:33:34;;;;;;;22.30;9.48;;;4.00;100.00;;;;;;4995756;28;20046;-83
2023/01/30 05:36:01;;;;;;;24.55;9.23;;;4.00;100.00;;;;;;5000791;28;20070;-83
2023/01/30 05:38:28;;;;;;;19.98;8.80;;;3.90;100.00;;;;;;5001489;28;20053;-83
2023/01/30 05:41:04;;;;;;;29.23;8.98;;;3.90;100.00;;;;;;4995537;28;20048;-83
2023/01/30 05:43:31;;;;;;;19.58;8.32;;;4.00;100.00;;;;;;4993239;28;20483;-83
2023/01/30 05:45:59;;;;;;;18.92;7.57;;;3.90;100.00;;;;;;4997274;28;20053;-84
2023/01/30 05:48:27;;;;;;;24.20;7.55;;;3.90;100.00;;;;;;4996496;28;20139;-83
2023/01/30 05:50:58;;;;;;;21.85;6.80;;;3.90;100.00;;;;;;4996539;28;20050;-84
2023/01/30 05:53:28;;;;;;;19.30;6.93;;;3.80;100.00;;;;;;4998137;28;20049;-82
2023/01/30 05:56:02;;;;;;;13.98;6.82;;;3.70;100.00;;;;;;5003295;28;20050;-82
2023/01/30 05:58:30;;;;;;;18.52;6.13;;;3.60;100.00;;;;;;5005348;28;20045;-82
2023/01/30 06:01:02;;;;;;;12.00;4.20;;;3.50;100.00;;;;;;5004939;28;20747;-82
2023/01/30 06:03:30;;;;;;;18.42;4.95;;;3.50;100.00;;;;;;5004977;28;20398;-81
2023/01/30 06:05:57;;;;;;;11.18;4.68;;;3.50;100.00;;;;;;5007319;28;20042;-82
2023/01/30 06:08:24;;;;;;;10.95;4.60;;;3.50;100.00;;;;;;5005168;28;20125;-80
2023/01/30 06:10:52;;;;;;;11.73;4.47;;;3.50;100.00;;;;;;5001396;28;20056;-79
2023/01/30 06:13:19;;;;;;;10.35;4.45;;;3.60;100.00;;;;;;5005340;28;20061;-84
2023/01/30 06:15:46;;;;;;;18.35;5.30;;;3.60;100.00;;;;;;5008298;28;20185;-83
2023/01/30 06:18:13;;;;;;;14.40;5.40;;;3.50;100.00;;;;;;5004188;28;20052;-83
2023/01/30 06:20:40;;;;;;;11.07;4.40;;;3.40;100.00;;;;;;5003930;28;20080;-77
2023/01/30 06:23:07;;;;;;;15.32;5.00;;;3.50;100.00;;;;;;4997953;28;20054;-78
2023/01/30 06:25:34;;;;;;;13.40;5.15;;;3.40;100.00;;;;;;5006427;28;20468;-78
2023/01/30 06:28:00;;;;;;;18.77;5.20;;;3.40;100.00;;;;;;5006154;28;20065;-80
2023/01/30 06:30:27;;;;;;;14.07;5.13;;;3.40;100.00;;;;;;5007897;28;20069;-79
2023/01/30 06:32:54;;;;;;;13.30;5.13;;;3.40;100.00;;;;;;5005252;28;20509;-79
2023/01/30 06:35:21;;;;;;;15.60;5.10;;;3.30;100.00;;;;;;5009834;28;20506;-82
2023/01/30 06:37:48;;;;;;;22.50;6.15;;;3.30;100.00;;;;;;5002439;28;20509;-86
2023/01/30 06:40:16;;;;;;;15.43;5.88;;;3.30;100.00;;;;;;5004248;28;20041;-89
2023/01/30 06:42:45;;;;;;;18.05;5.57;;;3.30;100.00;;;;;;5004570;28;20054;-82
2023/01/30 06:45:13;;;;;;;22.67;6.22;;;3.40;100.00;;;;;;5022671;28;20081;-83
2023/01/30 06:47:54;;;;;;;20.48;6.40;;;3.50;100.00;;;;;;5007694;28;20053;-83
2023/01/30 06:50:23;;;;;;;11.68;5.15;;;3.60;100.00;;;;;;5005132;28;20054;-84
2023/01/30 06:52:52;;;;;;;23.95;6.05;;;3.60;100.00;;;;;;5004072;28;20168;-84
2023/01/30 06:55:22;;;;;;;28.88;5.65;;;3.70;100.00;;;;;;5005971;28;20064;-83
2023/01/30 06:57:59;;;;;;;13.60;4.88;;;3.70;100.00;;;;;;5004436;28;20042;-83
2023/01/30 07:00:26;;;;;;;48.05;4.57;;;3.80;100.00;;;;;;5002650;28;20046;-83
2023/01/30 07:02:53;;;;;;;17.40;4.10;;;3.80;100.00;;;;;;5004285;28;20052;-83
2023/01/30 07:05:20;;;;;;;11.30;3.60;;;3.90;100.00;;;;;;5002748;28;20657;-83
2023/01/30 07:07:47;;;;;;;14.50;2.78;;;3.90;100.00;;;;;;4997512;28;20050;-83
2023/01/30 07:10:14;;;;;;;14.95;3.15;;;4.00;100.00;;;;;;5002436;28;20680;-82
2023/01/30 07:12:40;;;;;;;18.98;3.55;;;4.00;100.00;;;;;;4999318;28;20056;-83
2023/01/30 07:15:08;;;;;;;18.63;2.72;;;4.00;100.00;;;;;;5004153;28;20172;-83
2023/01/30 07:17:35;;;;;;;18.23;2.70;;;3.90;100.00;;;;;;5000730;28;20042;-83
2023/01/30 07:20:02;;;;;;;39.60;4.15;;;3.90;100.00;;;;;;4997178;28;20053;-83
2023/01/30 07:22:32;;;;;;;18.52;2.97;;;3.90;100.00;;;;;;4993319;28;20386;-83
2023/01/30 07:24:59;;;;;;;32.65;3.47;;;3.90;100.00;;;;;;4997022;28;20081;-82
2023/01/30 07:27:26;;;;;;;30.38;3.20;;;4.00;99.20;;;;;;4997024;28;20060;-82
2023/01/30 07:29:53;;;;;;;20.60;3.55;;;4.00;99.10;;;;;;4997741;28;20069;-83
2023/01/30 07:32:20;;;;;;;18.80;2.53;;;4.00;98.50;;;;;;4997103;28;20054;-83
2023/01/30 07:34:47;;;;;;;22.35;2.33;;;4.00;98.50;;;;;;5006115;28;20144;-83
2023/01/30 07:37:14;;;;;;;22.05;3.42;;;4.00;98.50;;;;;;5004680;28;20391;-82
2023/01/30 07:39:41;;;;;;;21.27;2.75;;;4.00;98.00;;;;;;5003518;28;20056;-83
2023/01/30 07:42:08;;;;;;;29.60;3.35;;;3.90;98.10;;;;;;5003652;28;20052;-83
2023/01/30 07:44:35;;;;;;;28.52;3.72;;;3.90;98.70;;;;;;5011510;28;20041;-83
2023/01/30 07:47:02;;;;;;;23.33;2.85;;;4.00;98.80;;;;;;5003170;28;20517;-83
2023/01/30 07:49:29;;;;;;;25.75;3.38;;;4.10;98.50;;;;;;5004516;28;20108;-80
2023/01/30 07:51:56;;;;;;;16.75;2.70;;;4.10;98.10;;;;;;5003630;28;20058;-79
2023/01/30 07:54:23;;;;;;;23.83;3.22;;;4.20;97.30;;;;;;5006828;28;20078;-79
2023/01/30 07:56:49;;;;;;;27.70;3.10;;;4.20;96.80;;;;;;5009099;28;20077;-79
2023/01/30 07:59:16;;;;;;;22.70;3.13;;;4.10;97.00;;;;;;5018375;28;20157;-79
2023/01/30 08:01:43;;;;;;;20.73;2.97;;;4.10;97.20;;;;;;5005370;28;20096;-79
2023/01/30 08:04:10;;;;;;;25.30;2.75;;;4.10;97.80;;;;;;5017499;28;20384;-79
2023/01/30 08:06:38;;;;;;;25.50;3.25;;;4.10;97.90;;;;;;5000051;28;20056;-79
2023/01/30 08:09:06;;;;;;;29.80;2.97;;;4.10;97.80;;;;;;5003710;28;20050;-79
2023/01/30 08:11:33;;;;;;;25.60;2.83;;;4.20;97.60;;;;;;5000169;28;20478;-79
2023/01/30 08:14:00;;;;;;;16.38;3.20;;;4.20;96.90;;;;;;5004180;28;20133;-79
2023/01/30 08:16:27;;;;;;;37.42;3.70;;;4.30;97.20;;;;;;5010846;28;20137;-79
2023/01/30 08:18:54;;;;;;;35.33;3.30;;;4.30;97.20;;;;;;5004066;28;20046;-79
2023/01/30 08:21:21;;;;;;;17.27;2.78;;;4.40;97.30;;;;;;5018034;28;20804;-79
2023/01/30 08:23:48;;;;;;;23.15;3.10;;;4.50;98.30;;;;;;5027578;28;20046;-79
2023/01/30 08:26:15;;;;;;;22.25;2.75;;;4.60;96.70;;;;;;5005201;28;20149;-79
2023/01/30 08:28:42;;;;;;;31.90;3.97;;;4.80;96.10;;;;;;5005193;28;20061;-77
2023/01/30 08:31:11;;;;;;;29.20;3.25;;;4.90;96.80;;;;;;5005304;28;20734;-77
2023/01/30 08:33:38;;;;;;;25.42;3.55;;;5.00;95.30;;;;;;5006923;28;20049;-77
2023/01/30 08:36:05;;;;;;;48.28;3.85;;;5.00;95.20;;;;;;5007352;28;20049;-77
2023/01/30 08:38:32;;;;;;;32.33;3.20;;;5.00;94.70;;;;;;5007478;28;20049;-78
2023/01/30 08:40:59;;;;;;;36.90;4.38;;;4.90;94.30;;;;;;5006805;28;20507;-78
2023/01/30 08:43:27;;;;;;;28.08;4.60;;;4.90;95.20;;;;;;5006365;28;20564;-81
2023/01/30 08:45:55;;;;;;;22.65;3.60;;;5.00;95.30;;;;;;5006705;28;20044;-81
2023/01/30 08:48:22;;;;;;;22.83;2.80;;;5.00;95.60;;;;;;5008206;28;20061;-81
2023/01/30 08:50:53;;;;;;;35.58;2.95;;;5.10;94.80;;;;;;5004086;28;20050;-81
2023/01/30 08:53:20;;;;;;;22.85;3.17;;;5.20;93.20;;;;;;5022745;28;20136;-81
2023/01/30 08:55:53;;;;;;;26.45;3.13;;;5.20;93.70;;;;;;5007739;28;20530;-82
2023/01/30 08:58:21;;;;;;;28.13;2.65;;;5.30;92.50;;;;;;5002913;28;20050;-82
2023/01/30 09:00:49;;;;;;;28.70;2.97;;;5.40;91.40;;;;;;5001514;28;20069;-82
2023/01/30 09:03:17;;;;;;;13.73;2.30;;;5.40;91.30;;;;;;5000392;28;20077;-82
2023/01/30 09:05:44;;;;;;;15.05;2.05;;;5.50;91.90;;;;;;5001043;28;20142;-82
2023/01/30 09:08:11;;;;;;;30.63;3.10;;;5.50;91.30;;;;;;5001516;28;20063;-81
2023/01/30 09:10:38;;;;;;;31.48;2.35;;;5.60;90.30;;;;;;5002124;28;20099;-82
2023/01/30 09:13:08;;;;;;;34.10;3.13;;;5.70;91.60;;;;;;5004500;28;20057;-82
2023/01/30 09:15:35;;;;;;;33.78;3.75;;;5.80;89.10;;;;;;5003600;28;20089;-82
2023/01/30 09:18:03;;;;;;;30.08;3.30;;;5.90;90.40;;;;;;4997086;28;20054;-82
2023/01/30 09:20:30;;;;;;;23.33;2.38;;;5.90;88.30;;;;;;5000579;28;20064;-82
2023/01/30 09:22:57;;;;;;;29.98;3.40;;;5.80;88.10;;;;;;4995724;28;20515;-82
2023/01/30 09:25:24;;;;;;;28.23;2.70;;;5.80;88.80;;;;;;5001404;28;20125;-82
2023/01/30 09:27:51;;;;;;;20.77;3.20;;;6.10;87.90;;;;;;5002852;28;20046;-82
2023/01/30 09:30:18;;;;;;;15.93;2.72;;;6.30;87.00;;;;;;5006559;28;20049;-82
2023/01/30 09:32:47;;;;;;;30.52;3.40;;;6.30;85.50;;;;;;5006453;28;20717;-82
2023/01/30 09:35:14;;;;;;;25.10;2.92;;;6.30;85.70;;;;;;5022217;28;20042;-83
2023/01/30 09:37:52;;;;;;;22.67;2.88;;;6.20;85.30;;;;;;5007401;28;20133;-82
2023/01/30 09:40:31;;;;;;;28.55;3.00;;;6.10;84.70;;;;;;5005408;28;20042;-82
2023/01/30 09:43:13;;;;;;;38.80;3.50;;;6.00;85.00;;;;;;5008473;28;20073;-82
2023/01/30 09:45:43;;;;;;;38.53;3.08;;;5.90;84.20;;;;;;5010012;28;20697;-81
2023/01/30 09:48:36;;;;;;;19.13;2.42;;;6.00;86.40;;;;;;5007106;28;20057;-82
2023/01/30 09:51:21;;;;;;;23.13;3.20;;;6.10;84.50;;;;;;5006569;28;20054;-82
2023/01/30 09:54:07;;;;;;;27.92;2.67;;;6.10;86.10;;;;;;5016790;28;20061;-83
2023/01/30 09:56:34;;;;;;;28.33;3.45;;;6.00;86.50;;;;;;5009171;28;20045;-81
2023/01/30 09:59:06;;;;;;;30.58;3.00;;;5.90;86.50;;;;;;5007578;28;20054;-81
2023/01/30 10:02:06;;;;;;;17.73;2.70;;;5.70;86.70;;;;;;5007143;28;20052;-81
2023/01/30 10:04:36;;;;;;;26.55;3.65;;;5.50;87.30;;;;;;5006161;28;20073;-80
2023/01/30 10:07:12;;;;;;;29.10;3.05;;;5.40;87.70;;;;;;5004106;28;20064;-81
2023/01/30 10:10:14;;;;;;;13.07;1.88;;;5.20;89.40;;;;;;5008536;28;20053;-81
2023/01/30 10:13:06;;;;;;;10.57;1.02;;;4.80;91.50;;;;;;5000644;28;20061;-83
2023/01/30 10:15:52;;;;;;;4.75;1.42;;;4.50;93.30;;;;;;5006972;28;20092;-82
2023/01/30 10:18:38;;;;;;;7.30;1.05;;;4.50;94.80;;;;;;5004239;28;20073;-83
2023/01/30 10:21:23;;;;;;;;;;;4.60;94.40;;;;;;5008988;28;20130;-83
2023/01/30 10:23:59;;;;;;;6.83;0.87;;;4.50;91.20;;;;;;5004045;28;20735;-82
2023/01/30 10:26:27;;;;;;;7.00;0.90;;;4.20;91.90;;;;;;5008681;28;20301;-84
2023/01/30 10:29:06;;;;;;;13.05;1.42;;;3.90;92.70;;;;;;5007038;28;20056;-82
2023/01/30 10:31:54;;;;;;;9.10;1.17;;;3.70;93.50;;;;;;5004030;28;20100;-81
2023/01/30 10:34:29;;;;;;;3.72;0.82;;;3.40;94.40;;;;;;5013516;28;20512;-82
2023/01/30 10:37:31;;;;;;;5.47;0.65;;;3.00;96.10;;;;;;5013937;28;20053;-83
2023/01/30 10:40:21;;;;;;;7.60;1.88;;;2.90;97.80;;;;;;5006677;28;20045;-82
2023/01/30 10:43:12;;;;;;;5.90;0.95;;;2.80;99.70;;;;;;5007769;28;20057;-83
2023/01/30 10:46:08;;;;;;;7.13;1.00;;;2.70;99.60;;;;;;5012555;28;20054;-84
2023/01/30 10:48:57;;;;;;;11.25;1.23;;;2.70;99.90;;;;;;5023324;28;20054;-84
2023/01/30 10:51:42;;;;;;;17.17;1.27;;;2.60;100.00;;;;;;4998355;28;20049;-83
2023/01/30 10:54:34;;;;;;;9.55;0.88;;;2.50;100.00;;;;;;5009806;28;20384;-84
2023/01/30 10:57:31;;;;;;;4.35;0.60;;;2.60;100.00;;;;;;5007129;28;20157;-83
2023/01/30 11:00:30;;;;;;;6.05;0.93;;;3.00;100.00;;;;;;5001508;28;20050;-83
2023/01/30 11:03:09;;;;;;;7.50;0.93;;;4.20;100.00;;;;;;5014790;28;20042;-83
2023/01/30 11:05:50;;;;;;;6.75;0.95;;;5.30;100.00;;;;;;5007116;28;20053;-84
2023/01/30 11:08:17;;;;;;;6.78;1.08;;;5.70;93.90;;;;;;5007769;28;20745;-84
2023/01/30 11:10:44;;;;;;;9.68;1.35;;;5.40;93.30;;;;;;5007162;28;20054;-83
2023/01/30 11:13:31;;;;;;;7.70;1.10;;;5.10;93.50;;;;;;5018858;28;20054;-83
2023/01/30 11:16:03;;;;;;;5.40;0.88;;;5.00;94.20;;;;;;5007243;28;20057;-83
2023/01/30 11:18:31;;;;;;;14.02;1.30;;;4.90;94.80;;;;;;4995742;28;20137;-84
2023/01/30 11:21:31;;;;;;;8.80;1.20;;;5.10;95.20;;;;;;5008506;28;20153;-84
2023/01/30 11:24:16;;;;;;;4.85;1.35;;;5.20;97.20;;;;;;5007024;28;20058;-83
2023/01/30 11:26:43;;;;;;;5.68;1.23;;;5.60;95.20;;;;;;5009481;28;20137;-83
2023/01/30 11:29:29;;;;;;;14.40;1.67;;;5.90;95.00;;;;;;5010066;28;20077;-83
2023/01/30 11:32:10;;;;;;;22.83;1.92;;;6.50;91.20;;;;;;5000229;28;20066;-82
2023/01/30 11:34:40;;;;;;;18.10;2.50;;;6.30;90.20;;;;;;5001473;28;20140;-83
2023/01/30 11:37:22;;;;;;;20.48;2.03;;;6.30;90.40;;;;;;5011701;28;20136;-84
2023/01/30 11:39:52;;;;;;;14.20;2.33;;;6.40;90.70;;;;;;5006519;28;20170;-83
2023/01/30 11:42:29;;;;;;;22.35;2.72;;;6.80;90.70;;;;;;5007944;28;20409;-83
2023/01/30 11:44:59;;;;;;;11.13;1.58;;;7.10;88.60;;;;;;5006568;28;20046;-84
2023/01/30 11:48:04;;;;;;;16.33;2.10;;;6.90;87.00;;;;;;5001827;28;20107;-83
2023/01/30 11:50:48;;;;;;;17.75;2.13;;;6.70;87.40;;;;;;5006472;28;20082;-83
2023/01/30 11:53:25;;;;;;;12.32;2.03;;;6.40;87.70;;;;;;5019606;28;20056;-83
2023/01/30 11:55:56;;;;;;;10.25;1.27;;;6.30;90.30;;;;;;5005886;28;20776;-83
2023/01/30 11:58:35;;;;;;;14.10;1.35;;;6.00;89.00;;;;;;5002711;28;20081;-83
2023/01/30 12:01:04;;;;;;;13.30;1.42;;;5.90;88.70;;;;;;5020563;28;20129;-84
2023/01/30 12:03:32;;;;;;;7.43;0.90;;;5.70;89.40;;;;;;5005788;28;20086;-83
2023/01/30 12:05:59;;;;;;;19.45;1.30;;;5.60;89.30;;;;;;5008315;28;20038;-82
2023/01/30 12:08:35;;;;;;;7.47;0.90;;;5.40;91.00;;;;;;5011672;28;20140;-83
2023/01/30 12:11:26;;;;;;;6.03;1.05;;;5.30;92.00;;;;;;5008570;28;20057;-83
2023/01/30 12:13:57;;;;;;;10.15;1.13;;;5.20;93.90;;;;;;5013987;28;20137;-83
2023/01/30 12:17:04;;;;;;;6.22;1.27;;;5.10;94.00;;;;;;5025476;28;20098;-84
2023/01/30 12:19:59;;;;;;;10.70;1.23;;;5.10;92.40;;;;;;5006438;28;20048;-84
2023/01/30 12:22:35;;;;;;;7.25;1.27;;;5.00;91.40;;;;;;5009269;28;20053;-83
2023/01/30 12:25:25;;;;;;;7.80;1.38;;;4.90;92.80;;;;;;5010663;28;20049;-84
2023/01/30 12:28:02;;;;;;;9.57;1.38;;;4.80;92.30;;;;;;5011911;28;20053;-83
2023/01/30 12:30:32;;;;;;;9.98;1.13;;;4.80;93.30;;;;;;5018838;28;20077;-83
2023/01/30 12:33:02;;;;;;;12.52;1.35;;;4.80;92.90;;;;;;5017930;28;20053;-83
2023/01/30 12:35:48;;;;;;;9.23;2.05;;;4.80;91.60;;;;;;5004624;28;20050;-83
2023/01/30 12:38:42;;;;;;;9.80;1.63;;;4.80;92.40;;;;;;5016953;28;20194;-83
2023/01/30 12:41:37;;;;;;;10.15;1.23;;;4.70;92.30;;;;;;5016421;28;20375;-83
2023/01/30 12:44:18;;;;;;;11.65;1.35;;;4.60;93.30;;;;;;5028605;28;20422;-83
2023/01/30 12:47:05;;;;;;;12.77;1.45;;;4.60;93.70;;;;;;5010293;28;21017;-83
2023/01/30 12:49:54;;;;;;;5.53;1.30;;;4.50;93.80;;;;;;5014460;28;20062;-83
2023/01/30 12:52:45;;;;;;;12.73;1.58;;;4.50;95.60;;;;;;5007704;28;20050;-83
2023/01/30 12:55:46;;;;;;;11.77;1.58;;;4.50;95.40;;;;;;5006394;28;20068;-83
2023/01/30 12:58:22;;;;;;;11.15;1.45;;;4.60;94.80;;;;;;5009341;28;20132;-84
2023/01/30 13:01:01;;;;;;;16.58;1.70;;;4.60;93.80;;;;;;5008886;28;20061;-83
2023/01/30 13:03:55;;;;;;;16.77;2.15;;;4.60;95.30;;;;;;5010131;28;20056;-83
2023/01/30 13:06:30;;;;;;;11.18;1.48;;;4.60;94.60;;;;;;5007218;28;20447;-83
2023/01/30 13:09:07;;;;;;;15.63;1.77;;;4.70;94.60;;;;;;5005179;28;20049;-83
2023/01/30 13:11:37;;;;;;;17.67;1.40;;;4.60;92.70;;;;;;5009273;28;20670;-83
2023/01/30 13:14:18;;;;;;;10.77;1.40;;;4.60;93.30;;;;;;5003742;28;20050;-83
2023/01/30 13:17:05;;;;;;;14.23;1.48;;;4.60;92.60;;;;;;5007303;28;20054;-83
2023/01/30 13:19:43;;;;;;;19.08;1.60;;;4.60;92.00;;;;;;5014436;28;20072;-82